Time;durP1;ratioP1;P1;durP2;ratioP2;P2;SDS_P1;SDS_P2;PMS_P1;PMS_P2;Temp;Humidity;BMP_temperature;BMP_pressure;BME280_temperature;BME280_humidity;BME280_pressure;Samples;Min_cycle;Max_cycle;Signal;HPM_P1;HPM_P2
2022/10/01 00:01:58;;;;;;;6.38;4.40;;;;;;;;;;5031912;28;20058;-78
2022/10/01 00:04:26;;;;;;;8.43;4.88;;;;;;;;;;5030909;28;20099;-78
2022/10/01 00:06:52;;;;;;;9.10;4.70;;;;;;;;;;5031698;28;20433;-78
2022/10/01 00:09:18;;;;;;;7.95;4.60;;;;;;;;;;5032054;28;20319;-78
2022/10/01 00:11:45;;;;;;;10.38;4.95;;;;;;;;;;5032196;28;20445;-79
2022/10/01 00:14:11;;;;;;;7.55;5.07;;;;;;;;;;5031667;28;20071;-79
2022/10/01 00:16:37;;;;;;;8.82;5.13;;;;;;;;;;5031293;28;20346;-78
2022/10/01 00:19:04;;;;;;;9.73;5.13;;;;;;;;;;5030504;28;20099;-80
2022/10/01 00:21:31;;;;;;;10.57;5.53;;;;;;;;;;5030979;28;20073;-80
2022/10/01 00:24:03;;;;;;;8.55;5.57;;;;;;;;;;5031418;28;20061;-80
2022/10/01 00:26:35;;;;;;;10.75;5.38;;;;;;;;;;5031020;28;20092;-80
2022/10/01 00:29:03;;;;;;;7.75;4.95;;;;;;;;;;5031687;28;20057;-80
2022/10/01 00:31:30;;;;;;;10.27;4.93;;;;;;;;;;5031757;28;20056;-79
2022/10/01 00:33:58;;;;;;;6.88;4.80;;;;;;;;;;5030520;28;20291;-78
2022/10/01 00:36:25;;;;;;;13.40;5.38;;;;;;;;;;5030909;28;20045;-78
2022/10/01 00:38:52;;;;;;;8.45;5.25;;;;;;;;;;5029601;28;20053;-79
2022/10/01 00:41:18;;;;;;;12.32;5.88;;;;;;;;;;5013189;28;20055;-79
2022/10/01 00:43:47;;;;;;;10.75;4.95;;;;;;;;;;5029276;28;20057;-78
2022/10/01 00:46:13;;;;;;;9.63;5.18;;;;;;;;;;5031389;28;20053;-79
2022/10/01 00:49:01;;;;;;;9.82;4.88;;;;;;;;;;5029144;28;20076;-80
2022/10/01 00:51:29;;;;;;;11.48;5.10;;;;;;;;;;5012314;28;20133;-79
2022/10/01 00:54:01;;;;;;;8.30;4.68;;;;;;;;;;5030515;28;20050;-80
2022/10/01 00:56:28;;;;;;;8.15;4.45;;;;;;;;;;5031458;28;20121;-80
2022/10/01 00:58:55;;;;;;;7.18;4.43;;;;;;;;;;5042528;28;20045;-81
2022/10/01 01:01:23;;;;;;;7.35;3.97;;;;;;;;;;5050555;28;20103;-80
2022/10/01 01:03:50;;;;;;;8.82;4.53;;;;;;;;;;5066782;28;20056;-81
2022/10/01 01:06:17;;;;;;;7.47;3.97;;;;;;;;;;5071202;28;20049;-80
2022/10/01 01:08:43;;;;;;;7.28;4.05;;;;;;;;;;5070354;28;20033;-79
2022/10/01 01:11:33;;;;;;;7.18;4.00;;;;;;;;;;5062127;28;20078;-80
2022/10/01 01:14:04;;;;;;;7.53;3.90;;;;;;;;;;5039378;28;20052;-80
2022/10/01 01:16:40;;;;;;;6.05;3.42;;;;;;;;;;5018804;28;20064;-79
2022/10/01 01:19:22;;;;;;;7.57;3.58;;;;;;;;;;5013773;28;20094;-79
2022/10/01 01:21:51;;;;;;;7.45;4.00;;;;;;;;;;5013734;28;20083;-80
2022/10/01 01:24:27;;;;;;;6.38;3.60;;;;;;;;;;4996203;28;20482;-80
2022/10/01 01:26:59;;;;;;;6.03;3.65;;;;;;;;;;5012969;28;20065;-80
2022/10/01 01:29:39;;;;;;;10.77;3.53;;;;;;;;;;5014029;28;20066;-79
2022/10/01 01:32:11;;;;;;;8.68;3.35;;;;;;;;;;5014276;28;20049;-79
2022/10/01 01:34:42;;;;;;;6.00;2.95;;;;;;;;;;5012059;28;20466;-79
2022/10/01 01:37:11;;;;;;;6.22;3.10;;;;;;;;;;5047036;28;20052;-79
2022/10/01 01:39:39;;;;;;;6.68;3.38;;;;;;;;;;5053337;28;20049;-79
2022/10/01 01:42:08;;;;;;;6.68;3.40;;;;;;;;;;5053293;28;20056;-80
2022/10/01 01:44:37;;;;;;;13.82;3.38;;;;;;;;;;5052734;28;20486;-80
2022/10/01 01:47:07;;;;;;;11.98;3.45;;;;;;;;;;5055137;28;20051;-78
2022/10/01 01:49:33;;;;;;;8.23;3.10;;;;;;;;;;5056155;28;20048;-80
2022/10/01 01:52:04;;;;;;;6.20;3.05;;;;;;;;;;5054473;28;20412;-80
2022/10/01 01:54:34;;;;;;;6.38;2.90;;;;;;;;;;5053680;28;20045;-80
2022/10/01 01:57:02;;;;;;;5.80;2.78;;;;;;;;;;5053824;28;20052;-80
2022/10/01 01:59:30;;;;;;;4.90;2.70;;;;;;;;;;5036728;28;20057;-81
2022/10/01 02:01:57;;;;;;;9.40;3.47;;;;;;;;;;5035609;28;20050;-81
2022/10/01 02:04:47;;;;;;;6.80;2.97;;;;;;;;;;5033812;28;20053;-81
2022/10/01 02:07:30;;;;;;;8.57;3.05;;;;;;;;;;5038121;28;20050;-80
2022/10/01 02:09:57;;;;;;;6.45;3.20;;;;;;;;;;5053485;28;20049;-80
2022/10/01 02:12:32;;;;;;;6.03;2.85;;;;;;;;;;5037897;28;20050;-79
2022/10/01 02:15:02;;;;;;;7.82;3.33;;;;;;;;;;5035710;28;20057;-79
2022/10/01 02:17:39;;;;;;;7.15;3.35;;;;;;;;;;5033246;28;20045;-81
2022/10/01 02:20:07;;;;;;;5.35;3.13;;;;;;;;;;5031583;28;20049;-80
2022/10/01 02:22:39;;;;;;;5.20;3.00;;;;;;;;;;5033968;28;20048;-80
2022/10/01 02:25:06;;;;;;;7.10;3.40;;;;;;;;;;5033479;28;20064;-80
2022/10/01 02:27:39;;;;;;;9.05;3.88;;;;;;;;;;5032811;28;20442;-79
2022/10/01 02:30:07;;;;;;;6.60;3.47;;;;;;;;;;5032644;28;20051;-80
2022/10/01 02:32:36;;;;;;;9.60;4.07;;;;;;;;;;5033529;28;20049;-79
2022/10/01 02:35:04;;;;;;;6.32;3.85;;;;;;;;;;5033486;28;20215;-80
2022/10/01 02:37:32;;;;;;;7.38;4.10;;;;;;;;;;5032807;28;20049;-79
2022/10/01 02:39:59;;;;;;;11.57;4.75;;;;;;;;;;5033174;28;20049;-80
2022/10/01 02:42:27;;;;;;;7.10;4.40;;;;;;;;;;5032423;28;20060;-79
2022/10/01 02:44:55;;;;;;;8.93;4.60;;;;;;;;;;5032582;28;20340;-78
2022/10/01 02:47:36;;;;;;;12.18;4.80;;;;;;;;;;5014371;28;20517;-78
2022/10/01 02:50:04;;;;;;;12.68;4.80;;;;;;;;;;5031282;28;20080;-80
2022/10/01 02:52:37;;;;;;;7.93;4.55;;;;;;;;;;5032401;28;20057;-79
2022/10/01 02:55:09;;;;;;;12.55;4.97;;;;;;;;;;5031844;28;20041;-79
2022/10/01 02:57:35;;;;;;;7.75;4.47;;;;;;;;;;5032855;28;20049;-81
2022/10/01 03:00:06;;;;;;;11.32;4.60;;;;;;;;;;5051717;28;20064;-80
2022/10/01 03:02:33;;;;;;;7.50;4.00;;;;;;;;;;5052745;28;20060;-81
2022/10/01 03:05:00;;;;;;;8.48;3.90;;;;;;;;;;5051259;28;20099;-80
2022/10/01 03:07:29;;;;;;;8.18;4.40;;;;;;;;;;5051644;28;20049;-80
2022/10/01 03:09:55;;;;;;;8.05;4.40;;;;;;;;;;5034458;28;20045;-79
2022/10/01 03:12:22;;;;;;;8.00;4.15;;;;;;;;;;5051840;28;20267;-81
2022/10/01 03:14:49;;;;;;;9.85;4.18;;;;;;;;;;5052285;28;20325;-79
2022/10/01 03:17:15;;;;;;;5.97;3.88;;;;;;;;;;5034853;28;20064;-80
2022/10/01 03:19:42;;;;;;;6.32;3.67;;;;;;;;;;5053213;28;20061;-78
2022/10/01 03:22:10;;;;;;;6.20;3.95;;;;;;;;;;5053022;28;20053;-79
2022/10/01 03:24:36;;;;;;;8.20;4.25;;;;;;;;;;5051992;28;20049;-80
2022/10/01 03:27:03;;;;;;;7.85;4.28;;;;;;;;;;5052461;28;20508;-80
2022/10/01 03:29:29;;;;;;;12.77;4.38;;;;;;;;;;5052593;28;20063;-81
2022/10/01 03:31:55;;;;;;;7.80;4.28;;;;;;;;;;5052797;28;20068;-80
2022/10/01 03:34:22;;;;;;;6.55;4.07;;;;;;;;;;5051406;28;20052;-80
2022/10/01 03:36:48;;;;;;;8.07;4.30;;;;;;;;;;5051277;28;20049;-79
2022/10/01 03:39:15;;;;;;;7.20;4.60;;;;;;;;;;5051196;28;20045;-80
2022/10/01 03:41:41;;;;;;;7.30;4.22;;;;;;;;;;5051171;28;20480;-80
2022/10/01 03:44:08;;;;;;;6.05;4.03;;;;;;;;;;5052045;28;20486;-81
2022/10/01 03:46:34;;;;;;;5.80;4.13;;;;;;;;;;5051759;28;20596;-80
2022/10/01 03:49:00;;;;;;;9.93;4.18;;;;;;;;;;5051063;28;20049;-79
2022/10/01 03:51:27;;;;;;;7.80;4.13;;;;;;;;;;5051761;28;20505;-79
2022/10/01 03:53:54;;;;;;;8.68;4.30;;;;;;;;;;5052165;28;20041;-79
2022/10/01 03:56:21;;;;;;;9.10;4.25;;;;;;;;;;5034201;28;20052;-78
2022/10/01 03:58:47;;;;;;;11.10;4.43;;;;;;;;;;5038590;28;20249;-79
2022/10/01 04:01:16;;;;;;;12.63;4.13;;;;;;;;;;5031335;28;20049;-80
2022/10/01 04:03:43;;;;;;;9.80;4.20;;;;;;;;;;5030491;28;20127;-79
2022/10/01 04:06:09;;;;;;;8.32;3.90;;;;;;;;;;5031249;28;20054;-77
2022/10/01 04:08:37;;;;;;;11.02;3.90;;;;;;;;;;5029935;28;20060;-79
2022/10/01 04:11:06;;;;;;;10.70;4.85;;;;;;;;;;5032249;28;20353;-79
2022/10/01 04:13:33;;;;;;;7.20;4.50;;;;;;;;;;5030400;28;20056;-80
2022/10/01 04:16:03;;;;;;;6.40;3.90;;;;;;;;;;5014764;28;20053;-80
2022/10/01 04:18:30;;;;;;;8.18;3.88;;;;;;;;;;5013493;28;20084;-78
2022/10/01 04:20:56;;;;;;;8.95;4.60;;;;;;;;;;5031590;28;20046;-79
2022/10/01 04:23:23;;;;;;;8.63;4.45;;;;;;;;;;5013418;28;20049;-80
2022/10/01 04:25:49;;;;;;;7.85;4.35;;;;;;;;;;5032611;28;20049;-80
2022/10/01 04:28:16;;;;;;;8.93;4.50;;;;;;;;;;5029797;28;20072;-80
2022/10/01 04:30:43;;;;;;;9.38;4.93;;;;;;;;;;5032718;28;20049;-81
2022/10/01 04:33:14;;;;;;;7.80;4.00;;;;;;;;;;5013607;28;20083;-80
2022/10/01 04:35:42;;;;;;;8.15;4.35;;;;;;;;;;5031976;28;20045;-81
2022/10/01 04:38:13;;;;;;;7.70;4.40;;;;;;;;;;5031476;28;20057;-81
2022/10/01 04:40:40;;;;;;;7.90;3.75;;;;;;;;;;5014719;28;20057;-81
2022/10/01 04:43:08;;;;;;;8.52;4.03;;;;;;;;;;5030837;28;20045;-80
2022/10/01 04:45:37;;;;;;;7.00;4.40;;;;;;;;;;5032632;28;20513;-81
2022/10/01 04:48:06;;;;;;;7.60;4.30;;;;;;;;;;5012751;28;20051;-82
2022/10/01 04:50:32;;;;;;;7.03;4.47;;;;;;;;;;5032765;28;20245;-81
2022/10/01 04:52:59;;;;;;;7.30;4.47;;;;;;;;;;5020243;28;20053;-82
2022/10/01 04:55:25;;;;;;;7.57;4.18;;;;;;;;;;5039787;28;20049;-81
2022/10/01 04:57:51;;;;;;;7.60;4.50;;;;;;;;;;5042169;28;20137;-78
2022/10/01 05:00:20;;;;;;;8.07;5.15;;;;;;;;;;5060132;28;20041;-82
2022/10/01 05:02:48;;;;;;;9.50;5.03;;;;;;;;;;5059071;28;20341;-81
2022/10/01 05:05:15;;;;;;;7.70;4.93;;;;;;;;;;5058452;28;20049;-80
2022/10/01 05:07:41;;;;;;;9.40;5.10;;;;;;;;;;5058569;28;20075;-80
2022/10/01 05:10:10;;;;;;;10.88;5.00;;;;;;;;;;5064192;28;20056;-82
2022/10/01 05:12:36;;;;;;;14.07;5.63;;;;;;;;;;5068916;28;20306;-83
2022/10/01 05:15:03;;;;;;;9.00;5.38;;;;;;;;;;5068332;28;20072;-81
2022/10/01 05:17:31;;;;;;;11.65;4.85;;;;;;;;;;5051706;28;20126;-81
2022/10/01 05:19:58;;;;;;;8.23;5.30;;;;;;;;;;5069259;28;20092;-81
2022/10/01 05:22:24;;;;;;;7.95;5.65;;;;;;;;;;5071483;28;20032;-81
2022/10/01 05:24:51;;;;;;;7.70;5.18;;;;;;;;;;5061576;28;20057;-80
2022/10/01 05:27:17;;;;;;;9.77;5.40;;;;;;;;;;5063296;28;20049;-81
2022/10/01 05:29:45;;;;;;;10.93;5.38;;;;;;;;;;5076623;28;20048;-81
2022/10/01 05:32:11;;;;;;;10.32;5.68;;;;;;;;;;5077427;28;20052;-81
2022/10/01 05:34:38;;;;;;;8.55;5.38;;;;;;;;;;5064100;28;20053;-81
2022/10/01 05:37:05;;;;;;;10.55;5.70;;;;;;;;;;5061827;28;20203;-80
2022/10/01 05:39:31;;;;;;;7.85;5.10;;;;;;;;;;5062523;28;20045;-81
2022/10/01 05:41:58;;;;;;;8.98;5.20;;;;;;;;;;5065732;28;20517;-83
2022/10/01 05:44:36;;;;;;;10.02;6.10;;;;;;;;;;5062732;28;20140;-80
2022/10/01 05:47:06;;;;;;;11.80;5.55;;;;;;;;;;5062083;28;20413;-80
2022/10/01 05:49:32;;;;;;;9.35;5.55;;;;;;;;;;5061712;28;20045;-81
2022/10/01 05:51:59;;;;;;;11.52;6.45;;;;;;;;;;5057737;28;20075;-81
2022/10/01 05:54:28;;;;;;;10.52;5.22;;;;;;;;;;5040364;28;20108;-81
2022/10/01 05:56:55;;;;;;;8.85;5.60;;;;;;;;;;5058179;28;20045;-80
2022/10/01 05:59:21;;;;;;;8.35;5.30;;;;;;;;;;5042745;28;20045;-79
2022/10/01 06:01:48;;;;;;;8.57;5.10;;;;;;;;;;5041514;28;20132;-81
2022/10/01 06:04:19;;;;;;;8.13;5.22;;;;;;;;;;5041594;28;20049;-80
2022/10/01 06:06:47;;;;;;;7.78;5.07;;;;;;;;;;5040401;28;20521;-81
2022/10/01 06:09:14;;;;;;;9.45;5.00;;;;;;;;;;5023730;28;20049;-80
2022/10/01 06:11:40;;;;;;;10.25;5.57;;;;;;;;;;5023426;28;20056;-81
2022/10/01 06:14:07;;;;;;;10.10;5.45;;;;;;;;;;5040489;28;20055;-80
2022/10/01 06:16:33;;;;;;;9.57;5.00;;;;;;;;;;5040834;28;20055;-81
2022/10/01 06:19:00;;;;;;;7.88;5.20;;;;;;;;;;5041102;28;20464;-81
2022/10/01 06:21:26;;;;;;;8.55;4.68;;;;;;;;;;5043068;28;20050;-81
2022/10/01 06:23:53;;;;;;;7.28;4.43;;;;;;;;;;5026294;28;20052;-80
2022/10/01 06:26:19;;;;;;;8.98;4.75;;;;;;;;;;5043834;28;20128;-79
2022/10/01 06:28:49;;;;;;;9.02;5.10;;;;;;;;;;5041736;28;20052;-79
2022/10/01 06:31:17;;;;;;;8.45;5.30;;;;;;;;;;5045604;28;20075;-78
2022/10/01 06:33:44;;;;;;;8.68;4.90;;;;;;;;;;5043059;28;20046;-81
2022/10/01 06:36:10;;;;;;;7.70;4.60;;;;;;;;;;5043387;28;20498;-80
2022/10/01 06:38:37;;;;;;;8.98;4.85;;;;;;;;;;5041069;28;20065;-81
2022/10/01 06:41:04;;;;;;;8.85;4.65;;;;;;;;;;5040523;28;20052;-79
2022/10/01 06:43:30;;;;;;;8.85;4.82;;;;;;;;;;5034275;28;20077;-79
2022/10/01 06:45:59;;;;;;;7.47;4.78;;;;;;;;;;5020829;28;20111;-81
2022/10/01 06:48:27;;;;;;;8.10;5.13;;;;;;;;;;5037884;28;20137;-84
2022/10/01 06:50:54;;;;;;;7.63;4.90;;;;;;;;;;5037651;28;20052;-79
2022/10/01 06:53:20;;;;;;;9.43;5.03;;;;;;;;;;5040120;28;20053;-80
2022/10/01 06:55:48;;;;;;;10.63;5.00;;;;;;;;;;5037772;28;20105;-82
2022/10/01 06:58:16;;;;;;;7.78;5.00;;;;;;;;;;5043052;28;20051;-79
2022/10/01 07:00:43;;;;;;;8.68;5.20;;;;;;;;;;5058774;28;20049;-81
2022/10/01 07:03:11;;;;;;;9.73;5.38;;;;;;;;;;5055784;28;20195;-81
2022/10/01 07:05:38;;;;;;;8.70;5.22;;;;;;;;;;5056390;28;20065;-81
2022/10/01 07:08:05;;;;;;;7.93;4.95;;;;;;;;;;5055469;28;20528;-81
2022/10/01 07:10:33;;;;;;;10.02;5.20;;;;;;;;;;5057721;28;20056;-81
2022/10/01 07:13:09;;;;;;;8.45;4.90;;;;;;;;;;5055921;28;20052;-80
2022/10/01 07:15:36;;;;;;;9.50;5.15;;;;;;;;;;5039256;28;20045;-82
2022/10/01 07:18:02;;;;;;;7.57;4.45;;;;;;;;;;5056100;28;20048;-82
2022/10/01 07:20:32;;;;;;;7.85;4.32;;;;;;;;;;5059040;28;20052;-80
2022/10/01 07:22:59;;;;;;;8.45;4.80;;;;;;;;;;5057902;28;20076;-82
2022/10/01 07:25:25;;;;;;;7.25;4.43;;;;;;;;;;5056615;28;20049;-81
2022/10/01 07:27:55;;;;;;;6.45;3.80;;;;;;;;;;5057086;28;20052;-81
2022/10/01 07:30:22;;;;;;;7.47;3.83;;;;;;;;;;5056388;28;20049;-81
2022/10/01 07:32:49;;;;;;;8.25;3.85;;;;;;;;;;5058908;28;20053;-81
2022/10/01 07:35:16;;;;;;;8.07;4.45;;;;;;;;;;5056262;28;20051;-80
2022/10/01 07:37:42;;;;;;;6.75;3.63;;;;;;;;;;5056239;28;20052;-79
2022/10/01 07:40:08;;;;;;;7.25;3.88;;;;;;;;;;5055739;28;20064;-80
2022/10/01 07:42:36;;;;;;;5.88;3.75;;;;;;;;;;5054676;28;20525;-80
2022/10/01 07:45:05;;;;;;;7.00;3.92;;;;;;;;;;5054739;28;20049;-80
2022/10/01 07:47:31;;;;;;;7.63;3.60;;;;;;;;;;5056269;28;20098;-81
2022/10/01 07:49:58;;;;;;;5.68;3.13;;;;;;;;;;5056179;28;20053;-81
2022/10/01 07:52:24;;;;;;;6.85;3.47;;;;;;;;;;5057247;28;20048;-81
2022/10/01 07:54:50;;;;;;;8.32;3.65;;;;;;;;;;5055352;28;20053;-81
2022/10/01 07:57:17;;;;;;;5.25;3.20;;;;;;;;;;5055140;28;20041;-81
2022/10/01 07:59:43;;;;;;;5.60;2.75;;;;;;;;;;5034434;28;20491;-80
2022/10/01 08:02:14;;;;;;;5.55;3.20;;;;;;;;;;5034554;28;20050;-80
2022/10/01 08:07:26;;;;;;;5.30;2.80;;;;;;;;;;5033499;28;20068;-82
2022/10/01 08:09:52;;;;;;;5.00;2.72;;;;;;;;;;5033751;28;20049;-81
2022/10/01 08:12:19;;;;;;;4.43;2.83;;;;;;;;;;5033725;28;20108;-81
2022/10/01 08:14:48;;;;;;;5.30;2.70;;;;;;;;;;5033410;28;20042;-80
2022/10/01 08:17:14;;;;;;;4.63;2.50;;;;;;;;;;5033268;28;20060;-81
2022/10/01 08:19:41;;;;;;;8.10;2.70;;;;;;;;;;5032757;28;20422;-81
2022/10/01 08:22:07;;;;;;;8.02;2.90;;;;;;;;;;5034388;28;20041;-80
2022/10/01 08:24:35;;;;;;;5.78;2.45;;;;;;;;;;5022254;28;20071;-81
2022/10/01 08:27:01;;;;;;;3.80;2.50;;;;;;;;;;5037512;28;20072;-82
2022/10/01 08:29:28;;;;;;;4.30;2.47;;;;;;;;;;5038282;28;20490;-82
2022/10/01 08:31:55;;;;;;;3.95;2.30;;;;;;;;;;5042390;28;20051;-81
2022/10/01 08:34:21;;;;;;;7.18;2.63;;;;;;;;;;5038314;28;20417;-81
2022/10/01 08:36:51;;;;;;;4.80;2.15;;;;;;;;;;5037503;28;20056;-81
2022/10/01 08:39:17;;;;;;;3.30;2.00;;;;;;;;;;5041218;28;20050;-81
2022/10/01 08:42:07;;;;;;;6.38;2.55;;;;;;;;;;5039668;28;20046;-80
2022/10/01 08:44:43;;;;;;;3.90;2.25;;;;;;;;;;5026429;28;20049;-80
2022/10/01 08:47:33;;;;;;;5.85;2.20;;;;;;;;;;5040088;28;20068;-80
2022/10/01 08:50:26;;;;;;;4.82;2.17;;;;;;;;;;5028227;28;20113;-81
2022/10/01 08:52:58;;;;;;;4.65;2.30;;;;;;;;;;5042482;28;20041;-81
2022/10/01 08:55:25;;;;;;;5.88;2.17;;;;;;;;;;5054130;28;20137;-81
2022/10/01 08:57:57;;;;;;;4.72;2.20;;;;;;;;;;5051610;28;20032;-80
2022/10/01 09:00:25;;;;;;;4.05;2.05;;;;;;;;;;5056390;28;20398;-80
2022/10/01 09:02:51;;;;;;;5.28;2.10;;;;;;;;;;5056802;28;20053;-79
2022/10/01 09:05:23;;;;;;;4.32;2.05;;;;;;;;;;5038389;28;20055;-81
2022/10/01 09:08:02;;;;;;;4.72;2.03;;;;;;;;;;5054542;28;20067;-81
2022/10/01 09:10:39;;;;;;;4.40;2.03;;;;;;;;;;5056528;28;20053;-81
2022/10/01 09:13:12;;;;;;;6.07;2.00;;;;;;;;;;5056359;28;20469;-80
2022/10/01 09:15:38;;;;;;;2.10;1.45;;;;;;;;;;5057440;28;20076;-79
2022/10/01 09:18:04;;;;;;;2.92;1.73;;;;;;;;;;5053017;28;20060;-79
2022/10/01 09:20:35;;;;;;;3.30;1.98;;;;;;;;;;5056644;28;20051;-81
2022/10/01 09:23:11;;;;;;;4.07;1.60;;;;;;;;;;5037868;28;20049;-81
2022/10/01 09:25:37;;;;;;;;;;;;;;;;;;5056394;28;20049;-79
2022/10/01 09:28:10;;;;;;;2.45;1.65;;;;;;;;;;5056124;28;19924;-79
2022/10/01 09:30:39;;;;;;;2.85;1.60;;;;;;;;;;5053779;28;20416;-79
2022/10/01 09:33:17;;;;;;;4.15;1.98;;;;;;;;;;5053202;28;20330;-79
2022/10/01 09:35:48;;;;;;;3.97;1.33;;;;;;;;;;5054854;28;20493;-78
2022/10/01 09:38:21;;;;;;;4.47;1.63;;;;;;;;;;5038330;28;20171;-79
2022/10/01 09:40:55;;;;;;;5.30;1.70;;;;;;;;;;5045769;28;20033;-79
2022/10/01 09:43:25;;;;;;;5.72;1.65;;;;;;;;;;5070626;28;20135;-79
2022/10/01 09:45:51;;;;;;;2.53;1.60;;;;;;;;;;5061230;28;20075;-81
2022/10/01 09:48:37;;;;;;;3.72;1.58;;;;;;;;;;5063143;28;20063;-80
2022/10/01 09:51:13;;;;;;;2.70;1.50;;;;;;;;;;5066367;28;20053;-80
2022/10/01 09:53:45;;;;;;;4.03;1.60;;;;;;;;;;5043227;28;20132;-81
2022/10/01 09:56:25;;;;;;;3.47;1.70;;;;;;;;;;5038674;28;20053;-81
2022/10/01 09:58:53;;;;;;;7.72;1.90;;;;;;;;;;5029281;28;20132;-80
2022/10/01 10:01:22;;;;;;;3.20;1.85;;;;;;;;;;5038253;28;20060;-80
2022/10/01 10:04:00;;;;;;;4.05;1.80;;;;;;;;;;5038142;28;20132;-80
2022/10/01 10:06:27;;;;;;;7.45;1.92;;;;;;;;;;5021706;28;20420;-79
2022/10/01 10:08:55;;;;;;;5.80;1.88;;;;;;;;;;5037984;28;20606;-79
2022/10/01 10:11:24;;;;;;;4.05;1.98;;;;;;;;;;5021732;28;20416;-79
2022/10/01 10:13:51;;;;;;;4.95;1.88;;;;;;;;;;5038984;28;20056;-79
2022/10/01 10:16:19;;;;;;;4.50;2.45;;;;;;;;;;5022106;28;20081;-80
2022/10/01 10:18:47;;;;;;;5.07;2.13;;;;;;;;;;5038193;28;20050;-80
2022/10/01 10:21:15;;;;;;;3.45;1.83;;;;;;;;;;5041252;28;20079;-80
2022/10/01 10:23:49;;;;;;;5.03;1.60;;;;;;;;;;5039952;28;20045;-80
2022/10/01 10:26:37;;;;;;;5.45;2.05;;;;;;;;;;5041135;28;20136;-80
2022/10/01 10:29:06;;;;;;;5.35;1.92;;;;;;;;;;5041324;28;20140;-80
2022/10/01 10:31:43;;;;;;;4.00;1.63;;;;;;;;;;5041119;28;20069;-80
2022/10/01 10:34:12;;;;;;;2.08;1.55;;;;;;;;;;5041464;28;20083;-80
2022/10/01 10:36:40;;;;;;;6.80;1.70;;;;;;;;;;5040810;28;20111;-81
2022/10/01 10:39:16;;;;;;;2.30;1.30;;;;;;;;;;5040396;28;20046;-81
2022/10/01 10:41:44;;;;;;;5.10;1.30;;;;;;;;;;5039441;28;20482;-78
2022/10/01 10:44:12;;;;;;;2.15;1.40;;;;;;;;;;5038411;28;20137;-80
2022/10/01 10:46:39;;;;;;;2.78;1.40;;;;;;;;;;5039181;28;20145;-81
2022/10/01 10:49:31;;;;;;;2.45;1.33;;;;;;;;;;5036946;28;20053;-80
2022/10/01 10:51:59;;;;;;;4.30;2.03;;;;;;;;;;5039073;28;20057;-80
2022/10/01 10:54:36;;;;;;;1.50;1.10;;;;;;;;;;5038633;28;20045;-81
2022/10/01 10:57:29;;;;;;;3.05;1.23;;;;;;;;;;5038107;28;20064;-81
2022/10/01 11:00:04;;;;;;;3.08;1.20;;;;;;;;;;5021243;28;20553;-79
2022/10/01 11:02:32;;;;;;;1.73;1.13;;;;;;;;;;5024722;28;20049;-82
2022/10/01 11:05:19;;;;;;;2.63;1.00;;;;;;;;;;5040892;28;20664;-79
2022/10/01 11:07:46;;;;;;;1.30;0.88;;;;;;;;;;5039147;28;20109;-81
2022/10/01 11:10:18;;;;;;;2.15;1.05;;;;;;;;;;5038082;28;20060;-80
2022/10/01 11:12:59;;;;;;;2.67;1.00;;;;;;;;;;5037755;28;20068;-81
2022/10/01 11:15:32;;;;;;;1.83;1.10;;;;;;;;;;5036900;28;20602;-80
2022/10/01 11:18:09;;;;;;;2.03;1.10;;;;;;;;;;5039186;28;20144;-80
2022/10/01 11:20:35;;;;;;;3.80;0.90;;;;;;;;;;5037738;28;20052;-80
2022/10/01 11:23:14;;;;;;;1.50;0.95;;;;;;;;;;5040256;28;20049;-81
2022/10/01 11:26:19;;;;;;;2.78;1.05;;;;;;;;;;5038628;28;20060;-80
2022/10/01 11:28:48;;;;;;;4.30;1.10;;;;;;;;;;4938190;29;20065;-80
2022/10/01 11:31:27;;;;;;;7.13;1.10;;;;;;;;;;4937848;29;20079;-80
2022/10/01 11:33:56;;;;;;;2.20;1.08;;;;;;;;;;4994962;28;20054;-80
2022/10/01 11:36:42;;;;;;;2.08;1.00;;;;;;;;;;5037278;28;20453;-78
2022/10/01 11:39:11;;;;;;;2.33;0.90;;;;;;;;;;5037494;28;20144;-81
2022/10/01 11:41:56;;;;;;;1.95;0.90;;;;;;;;;;5038088;28;20053;-79
2022/10/01 11:44:29;;;;;;;1.77;1.00;;;;;;;;;;5039956;28;20056;-80
2022/10/01 11:47:21;;;;;;;2.30;1.30;;;;;;;;;;5038846;28;20049;-80
2022/10/01 11:50:03;;;;;;;2.15;1.10;;;;;;;;;;5038486;28;20049;-80
2022/10/01 11:52:31;;;;;;;3.20;1.30;;;;;;;;;;5041995;28;20115;-80
2022/10/01 12:00:36;;;;;;;2.15;1.15;;;;;;;;;;5063573;28;20067;-80
2022/10/01 12:03:08;;;;;;;1.33;1.00;;;;;;;;;;5053688;28;20056;-80
2022/10/01 12:05:37;;;;;;;1.42;1.08;;;;;;;;;;5045740;28;20042;-80
2022/10/01 12:08:12;;;;;;;1.38;1.05;;;;;;;;;;5042604;28;20042;-80
2022/10/01 12:10:42;;;;;;;1.83;1.10;;;;;;;;;;5043060;28;20045;-80
2022/10/01 12:13:14;;;;;;;2.55;0.95;;;;;;;;;;5021940;28;20052;-80
2022/10/01 12:16:04;;;;;;;1.65;1.08;;;;;;;;;;5021878;28;20049;-81
2022/10/01 12:18:46;;;;;;;2.08;1.00;;;;;;;;;;5024457;28;20053;-80
2022/10/01 12:21:24;;;;;;;1.80;1.00;;;;;;;;;;5042275;28;20141;-79
2022/10/01 12:23:53;;;;;;;2.97;1.20;;;;;;;;;;5053794;28;20602;-79
2022/10/01 12:26:22;;;;;;;2.45;0.88;;;;;;;;;;5052806;28;20072;-81
2022/10/01 12:28:48;;;;;;;1.10;0.95;;;;;;;;;;5036324;28;20050;-79
2022/10/01 12:31:29;;;;;;;3.60;1.00;;;;;;;;;;5036882;28;20063;-81
2022/10/01 12:33:55;;;;;;;2.35;1.02;;;;;;;;;;5036295;28;20505;-81
2022/10/01 12:36:54;;;;;;;2.90;1.02;;;;;;;;;;5037630;28;20488;-80
2022/10/01 12:39:33;;;;;;;1.48;0.90;;;;;;;;;;4982386;28;20054;-80
2022/10/01 12:42:18;;;;;;;2.53;0.90;;;;;;;;;;5035408;28;20060;-80
2022/10/01 12:44:55;;;;;;;2.55;0.90;;;;;;;;;;5036477;28;20133;-81
2022/10/01 12:47:33;;;;;;;2.53;0.80;;;;;;;;;;5041408;28;20143;-79
2022/10/01 12:50:29;;;;;;;1.50;0.80;;;;;;;;;;5037671;28;20152;-80
2022/10/01 12:53:02;;;;;;;2.47;0.70;;;;;;;;;;4998217;28;20113;-80
2022/10/01 12:55:47;;;;;;;2.53;1.00;;;;;;;;;;5037171;28;20196;-80
2022/10/01 12:58:26;;;;;;;2.40;0.90;;;;;;;;;;5044465;28;20041;-81
2022/10/01 13:00:52;;;;;;;1.27;0.75;;;;;;;;;;5050449;28;20060;-79
2022/10/01 13:03:19;;;;;;;1.30;0.60;;;;;;;;;;5035797;28;20049;-80
2022/10/01 13:05:48;;;;;;;1.55;0.60;;;;;;;;;;5036835;28;20054;-81
2022/10/01 13:08:14;;;;;;;2.03;0.80;;;;;;;;;;5018409;28;20292;-80
2022/10/01 13:11:01;;;;;;;0.88;0.50;;;;;;;;;;5038066;28;20048;-80
2022/10/01 13:13:32;;;;;;;0.73;0.50;;;;;;;;;;5040380;28;20080;-81
2022/10/01 13:16:04;;;;;;;1.00;0.60;;;;;;;;;;5051595;28;20089;-79
2022/10/01 13:18:30;;;;;;;0.90;0.55;;;;;;;;;;5049641;28;20049;-81
2022/10/01 13:20:57;;;;;;;0.88;0.70;;;;;;;;;;5045856;28;20056;-80
2022/10/01 13:23:42;;;;;;;0.98;0.60;;;;;;;;;;5040439;28;20089;-80
2022/10/01 13:26:12;;;;;;;1.02;0.60;;;;;;;;;;5039638;28;20076;-81
2022/10/01 13:28:59;;;;;;;1.75;0.40;;;;;;;;;;5038942;28;20053;-81
2022/10/01 13:31:35;;;;;;;4.43;0.70;;;;;;;;;;5040868;28;20056;-82
2022/10/01 13:34:02;;;;;;;0.85;0.50;;;;;;;;;;5038974;28;20088;-81
2022/10/01 13:36:33;;;;;;;1.05;0.57;;;;;;;;;;5041442;28;20136;-81
2022/10/01 13:39:00;;;;;;;0.50;0.40;;;;;;;;;;5039921;28;20049;-81
2022/10/01 13:41:30;;;;;;;1.55;0.60;;;;;;;;;;5041488;28;20041;-79
2022/10/01 13:44:00;;;;;;;3.05;0.55;;;;;;;;;;5041031;28;20077;-80
2022/10/01 13:46:29;;;;;;;2.45;0.50;;;;;;;;;;5039058;28;20053;-81
2022/10/01 13:49:01;;;;;;;0.63;0.47;;;;;;;;;;5023130;28;20107;-81
2022/10/01 13:51:34;;;;;;;1.45;0.50;;;;;;;;;;5040305;28;20053;-80
2022/10/01 13:54:01;;;;;;;0.82;0.40;;;;;;;;;;5021739;28;20064;-80
2022/10/01 13:56:33;;;;;;;0.55;0.40;;;;;;;;;;5040401;28;20239;-82
2022/10/01 13:59:00;;;;;;;0.70;0.40;;;;;;;;;;5052362;28;20099;-79
2022/10/01 14:01:28;;;;;;;1.15;0.55;;;;;;;;;;5061336;28;20143;-81
2022/10/01 14:04:14;;;;;;;0.80;0.40;;;;;;;;;;5060084;28;20080;-82
2022/10/01 14:06:59;;;;;;;1.00;0.50;;;;;;;;;;5058838;28;20237;-80
2022/10/01 14:09:35;;;;;;;1.00;0.50;;;;;;;;;;5060899;28;20056;-81
2022/10/01 14:17:35;;;;;;;0.63;0.40;;;;;;;;;;5058831;28;20041;-80
2022/10/01 14:20:02;;;;;;;0.63;0.40;;;;;;;;;;5058770;28;20047;-81
2022/10/01 14:22:37;;;;;;;2.75;0.47;;;;;;;;;;5058868;28;20047;-80
2022/10/01 14:25:21;;;;;;;0.75;0.50;;;;;;;;;;5058611;28;20464;-80
2022/10/01 14:27:48;;;;;;;1.08;0.40;;;;;;;;;;5058332;28;20053;-81
2022/10/01 14:30:17;;;;;;;1.67;0.60;;;;;;;;;;5057532;28;20194;-80
2022/10/01 14:33:12;;;;;;;1.95;0.55;;;;;;;;;;5060651;28;20063;-80
2022/10/01 14:36:01;;;;;;;0.55;0.40;;;;;;;;;;5020291;28;20097;-80
2022/10/01 14:38:27;;;;;;;0.55;0.40;;;;;;;;;;5056144;28;20045;-81
2022/10/01 14:40:54;;;;;;;0.98;0.50;;;;;;;;;;5057880;28;20109;-81
2022/10/01 14:43:22;;;;;;;1.30;0.65;;;;;;;;;;5055486;28;20394;-80
2022/10/01 14:46:01;;;;;;;0.60;0.40;;;;;;;;;;5056691;28;20389;-81
2022/10/01 14:48:29;;;;;;;1.08;0.40;;;;;;;;;;5037447;28;20049;-81
2022/10/01 14:50:57;;;;;;;1.15;0.60;;;;;;;;;;5056484;28;20048;-81
2022/10/01 14:53:25;;;;;;;0.73;0.50;;;;;;;;;;5055225;28;20140;-82
2022/10/01 14:55:53;;;;;;;1.02;0.50;;;;;;;;;;5057614;28;20041;-80
2022/10/01 14:58:26;;;;;;;0.82;0.60;;;;;;;;;;5040332;28;20186;-82
2022/10/01 15:00:53;;;;;;;1.83;0.68;;;;;;;;;;5056964;28;20128;-81
2022/10/01 15:03:20;;;;;;;0.95;0.52;;;;;;;;;;5057460;28;20059;-82
2022/10/01 15:05:50;;;;;;;1.52;0.60;;;;;;;;;;5057035;28;20052;-81
2022/10/01 15:08:21;;;;;;;5.60;0.65;;;;;;;;;;5056494;28;20087;-82
2022/10/01 15:11:00;;;;;;;0.80;0.50;;;;;;;;;;5057472;28;20076;-80
2022/10/01 15:13:28;;;;;;;1.45;0.55;;;;;;;;;;5055090;28;20055;-81
2022/10/01 15:15:54;;;;;;;1.55;0.85;;;;;;;;;;5038152;28;20052;-81
2022/10/01 15:18:22;;;;;;;0.90;0.50;;;;;;;;;;5056283;28;20136;-81